createdAt,value
2018-10-18T00:00:31.422Z,25.83
2018-10-18T00:03:00.137Z,24.17
2018-10-18T00:05:28.683Z,24.93
2018-10-18T00:07:57.310Z,23.03
2018-10-18T00:10:25.747Z,24.33
2018-10-18T00:12:54.261Z,22.57
2018-10-18T00:15:22.723Z,25.17
2018-10-18T00:17:51.390Z,25.50
2018-10-18T00:20:19.816Z,25.27
2018-10-18T00:22:48.295Z,24.40
2018-10-18T00:25:16.977Z,25.47
2018-10-18T00:27:45.442Z,26.17
2018-10-18T00:30:14.811Z,26.40
2018-10-18T00:32:44.062Z,24.07
2018-10-18T00:35:12.740Z,25.43
2018-10-18T00:37:41.231Z,24.50
2018-10-18T00:40:11.079Z,22.63
2018-10-18T00:42:39.669Z,24.63
2018-10-18T00:45:09.035Z,23.93
2018-10-18T00:47:37.551Z,22.73
2018-10-18T00:50:07.183Z,24.27
2018-10-18T00:52:35.552Z,25.23
2018-10-18T00:55:04.069Z,25.40
2018-10-18T00:57:32.519Z,24.20
2018-10-18T01:00:01.022Z,23.63
2018-10-18T01:02:29.389Z,23.53
2018-10-18T01:04:57.817Z,23.73
2018-10-18T01:07:26.239Z,25.53
2018-10-18T01:09:54.676Z,25.20
2018-10-18T01:12:23.178Z,23.93
2018-10-18T01:14:51.607Z,23.73
2018-10-18T01:17:20.061Z,23.27
2018-10-18T01:19:48.500Z,24.13
2018-10-18T01:22:16.977Z,25.57
2018-10-18T01:24:45.439Z,24.63
2018-10-18T01:27:13.925Z,25.47
2018-10-18T01:29:42.397Z,25.60
2018-10-18T01:32:10.983Z,24.67
2018-10-18T01:34:39.426Z,24.83
2018-10-18T01:37:07.906Z,24.83
2018-10-18T01:39:36.332Z,24.40
2018-10-18T01:42:05.362Z,23.30
2018-10-18T01:44:33.843Z,23.60
2018-10-18T01:47:03.061Z,23.40
2018-10-18T01:49:31.578Z,24.10
2018-10-18T01:52:00.028Z,25.80
2018-10-18T01:54:28.466Z,24.83
2018-10-18T01:56:56.927Z,27.43
2018-10-18T01:59:25.403Z,24.60
2018-10-18T02:01:53.928Z,23.13
2018-10-18T02:04:22.471Z,24.63
2018-10-18T02:06:50.908Z,22.47
2018-10-18T02:09:19.390Z,23.57
2018-10-18T02:11:47.834Z,23.47
2018-10-18T02:14:16.291Z,24.90
2018-10-18T02:16:44.771Z,24.20
2018-10-18T02:19:13.265Z,24.70
2018-10-18T02:21:41.733Z,25.10
2018-10-18T02:24:10.322Z,26.77
2018-10-18T02:26:38.660Z,25.33
2018-10-18T02:29:07.160Z,25.60
2018-10-18T02:31:35.619Z,24.50
2018-10-18T02:34:04.087Z,25.83
2018-10-18T02:36:32.595Z,24.97
2018-10-18T02:39:01.056Z,24.53
2018-10-18T02:41:29.501Z,23.53
2018-10-18T02:43:57.929Z,24.07
2018-10-18T02:46:26.380Z,25.43
2018-10-18T02:48:54.835Z,26.40
2018-10-18T02:51:23.308Z,24.97
2018-10-18T02:53:51.799Z,25.50
2018-10-18T02:56:20.278Z,24.93
2018-10-18T02:58:48.814Z,23.33
2018-10-18T03:01:17.228Z,23.20
2018-10-18T03:03:45.680Z,22.37
2018-10-18T03:06:14.293Z,21.37
2018-10-18T03:08:42.602Z,23.80
2018-10-18T03:11:11.041Z,22.17
2018-10-18T03:13:39.542Z,23.00
2018-10-18T03:16:08.002Z,22.93
2018-10-18T03:18:36.449Z,23.60
2018-10-18T03:21:04.909Z,24.00
2018-10-18T03:23:33.355Z,24.73
2018-10-18T03:26:01.795Z,23.60
2018-10-18T03:28:30.209Z,24.00
2018-10-18T03:30:58.659Z,23.70
2018-10-18T03:33:27.097Z,23.67
2018-10-18T03:35:55.630Z,24.50
2018-10-18T03:38:23.981Z,25.17
2018-10-18T03:40:52.421Z,23.33
2018-10-18T03:43:20.845Z,23.63
2018-10-18T03:45:49.401Z,25.03
2018-10-18T03:48:17.931Z,25.47
2018-10-18T03:50:46.333Z,25.70
2018-10-18T03:53:14.775Z,25.20
2018-10-18T03:55:43.248Z,23.67
2018-10-18T03:58:11.693Z,24.63
2018-10-18T04:00:40.170Z,23.70
2018-10-18T04:03:08.635Z,23.60
2018-10-18T04:05:37.179Z,22.73
2018-10-18T04:08:05.966Z,22.80
2018-10-18T04:10:34.379Z,22.43
2018-10-18T04:13:02.883Z,22.83
2018-10-18T04:15:31.341Z,20.93
2018-10-18T04:17:59.884Z,21.40
2018-10-18T04:20:28.269Z,21.77
2018-10-18T04:22:56.765Z,22.27
2018-10-18T04:25:25.265Z,21.70
2018-10-18T04:27:53.712Z,22.33
2018-10-18T04:30:22.343Z,22.83
2018-10-18T04:32:50.634Z,23.03
2018-10-18T04:35:19.109Z,23.80
2018-10-18T04:37:47.553Z,23.17
2018-10-18T04:40:16.091Z,24.30
2018-10-18T04:42:44.550Z,24.40
2018-10-18T04:45:13.101Z,24.57
2018-10-18T04:47:41.663Z,23.10
2018-10-18T04:50:10.479Z,23.57
2018-10-18T04:52:38.951Z,24.43
2018-10-18T04:55:07.822Z,23.27
2018-10-18T04:57:36.193Z,25.80
2018-10-18T05:00:04.805Z,26.63
2018-10-18T05:02:33.301Z,24.80
2018-10-18T05:05:13.044Z,26.33
2018-10-18T05:07:41.510Z,23.67
2018-10-18T05:10:09.951Z,22.93
2018-10-18T05:12:39.262Z,23.30
2018-10-18T05:15:08.489Z,24.30
2018-10-18T05:17:37.023Z,22.30
2018-10-18T05:20:06.037Z,23.77
2018-10-18T05:22:34.584Z,24.70
2018-10-18T05:25:03.096Z,22.33
2018-10-18T05:27:31.648Z,22.80
2018-10-18T05:30:00.064Z,23.37
2018-10-18T05:32:28.507Z,23.67
2018-10-18T05:34:56.953Z,26.87
2018-10-18T05:37:25.421Z,23.33
2018-10-18T05:39:53.884Z,25.10
2018-10-18T05:42:22.373Z,23.87
2018-10-18T05:44:50.846Z,24.70
2018-10-18T05:47:19.461Z,24.70
2018-10-18T05:49:47.883Z,22.83
2018-10-18T05:52:16.364Z,22.33
2018-10-18T05:54:44.805Z,22.07
2018-10-18T05:57:13.249Z,26.73
2018-10-18T05:59:41.716Z,32.67
2018-10-18T06:02:10.193Z,32.40
2018-10-18T06:04:38.636Z,36.77
2018-10-18T06:07:07.227Z,43.10
2018-10-18T06:09:35.668Z,46.63
2018-10-18T06:12:04.380Z,45.27
2018-10-18T06:14:32.830Z,41.27
2018-10-18T06:17:01.326Z,44.47
2018-10-18T06:19:29.790Z,38.70
2018-10-18T06:21:58.313Z,35.10
2018-10-18T06:24:26.807Z,30.90
2018-10-18T06:26:55.266Z,26.37
2018-10-18T06:29:23.750Z,24.57
2018-10-18T06:31:52.186Z,27.60
2018-10-18T06:34:20.676Z,27.17
2018-10-18T06:36:49.150Z,25.73
2018-10-18T06:39:17.682Z,26.50
2018-10-18T06:41:46.125Z,26.97
2018-10-18T06:44:14.595Z,29.10
2018-10-18T06:46:43.172Z,26.73
2018-10-18T06:49:11.727Z,32.60
2018-10-18T06:51:40.159Z,27.43
2018-10-18T06:54:08.684Z,25.63
2018-10-18T06:56:37.087Z,27.60
2018-10-18T06:59:05.578Z,24.97
2018-10-18T07:01:34.080Z,26.87
2018-10-18T07:04:02.545Z,23.87
2018-10-18T07:06:30.989Z,23.47
2018-10-18T07:08:59.530Z,25.10
2018-10-18T07:11:27.946Z,24.33
2018-10-18T07:13:56.435Z,23.60
2018-10-18T07:16:24.917Z,25.10
2018-10-18T07:18:53.464Z,22.80
2018-10-18T07:21:21.984Z,21.70
2018-10-18T07:23:50.463Z,20.27
2018-10-18T07:26:18.979Z,20.77
2018-10-18T07:28:47.605Z,17.10
2018-10-18T07:31:16.047Z,19.27
2018-10-18T07:33:44.563Z,19.10
2018-10-18T07:36:13.176Z,18.77
2018-10-18T07:38:41.550Z,20.73
2018-10-18T07:41:10.108Z,20.13
2018-10-18T07:43:38.612Z,21.63
2018-10-18T07:46:07.155Z,20.43
2018-10-18T07:48:35.632Z,20.00
2018-10-18T07:51:04.105Z,19.80
2018-10-18T07:53:32.735Z,19.73
2018-10-18T07:56:01.090Z,20.47
2018-10-18T07:58:29.549Z,20.17
2018-10-18T08:00:58.087Z,19.80
2018-10-18T08:03:26.532Z,19.17
2018-10-18T08:05:54.999Z,19.77
2018-10-18T08:08:23.469Z,20.23
2018-10-18T08:10:52.010Z,20.67
2018-10-18T08:13:20.554Z,20.07
2018-10-18T08:15:48.947Z,19.87
2018-10-18T08:18:17.426Z,19.07
2018-10-18T08:20:45.889Z,19.40
2018-10-18T08:23:14.383Z,19.20
2018-10-18T08:25:42.903Z,20.27
2018-10-18T08:28:11.409Z,20.70
2018-10-18T08:30:39.913Z,20.73
2018-10-18T08:33:08.496Z,19.33
2018-10-18T08:35:36.985Z,19.47
2018-10-18T08:38:05.970Z,20.20
2018-10-18T08:40:34.387Z,19.73
2018-10-18T08:43:02.977Z,19.73
2018-10-18T08:45:31.486Z,19.93
2018-10-18T08:48:00.005Z,20.60
2018-10-18T08:50:28.482Z,20.10
2018-10-18T08:52:56.947Z,19.90
2018-10-18T08:55:25.428Z,20.10
2018-10-18T08:57:53.881Z,20.07
2018-10-18T09:00:22.322Z,20.43
2018-10-18T09:02:50.821Z,19.00
2018-10-18T09:05:19.282Z,20.47
2018-10-18T09:07:47.733Z,19.63
2018-10-18T09:10:16.188Z,20.23
2018-10-18T09:12:44.720Z,20.40
2018-10-18T09:15:13.206Z,20.17
2018-10-18T09:17:41.681Z,20.12
2018-10-18T09:20:10.187Z,19.80
2018-10-18T09:22:38.642Z,20.90
2018-10-18T09:25:08.173Z,20.00
2018-10-18T09:27:36.640Z,20.60
2018-10-18T09:30:06.395Z,20.68
2018-10-18T09:32:34.803Z,20.40
2018-10-18T09:35:03.303Z,23.95
2018-10-18T09:37:31.781Z,24.37
2018-10-18T09:40:00.296Z,24.45
2018-10-18T09:42:28.849Z,25.88
2018-10-18T09:44:57.411Z,25.70
2018-10-18T09:47:25.809Z,26.45
2018-10-18T09:49:54.324Z,25.55
2018-10-18T09:52:22.773Z,25.40
2018-10-18T09:54:51.254Z,26.35
2018-10-18T09:57:19.697Z,26.50
2018-10-18T09:59:48.171Z,24.27
2018-10-18T10:02:22.067Z,25.02
2018-10-18T10:04:50.583Z,24.30
2018-10-18T10:07:19.127Z,25.40
2018-10-18T10:09:47.628Z,24.75
2018-10-18T10:12:16.092Z,24.45
2018-10-18T10:14:44.586Z,26.05
2018-10-18T10:17:13.128Z,26.33
2018-10-18T10:19:41.550Z,25.55
2018-10-18T10:22:10.044Z,25.08
2018-10-18T10:24:38.585Z,24.95
2018-10-18T10:27:07.106Z,24.92
2018-10-18T10:29:35.575Z,25.70
2018-10-18T10:32:04.132Z,25.57
2018-10-18T10:34:32.610Z,26.30
2018-10-18T10:37:01.147Z,27.65
2018-10-18T10:39:29.628Z,25.82
2018-10-18T10:41:58.094Z,25.30
2018-10-18T10:44:26.654Z,26.90
2018-10-18T10:46:55.108Z,27.30
2018-10-18T10:49:23.600Z,25.37
2018-10-18T10:51:52.100Z,25.12
2018-10-18T10:54:20.598Z,25.15
2018-10-18T10:56:49.200Z,25.00
2018-10-18T10:59:18.831Z,27.93
2018-10-18T11:01:47.323Z,27.70
2018-10-18T11:04:15.821Z,27.22
2018-10-18T11:06:44.286Z,27.15
2018-10-18T11:09:19.248Z,26.75
2018-10-18T11:11:47.776Z,28.50
2018-10-18T11:14:16.320Z,27.60
2018-10-18T11:16:44.731Z,28.17
2018-10-18T11:19:13.548Z,28.67
2018-10-18T11:21:42.103Z,29.63
2018-10-18T11:24:10.696Z,31.17
2018-10-18T11:26:39.112Z,28.93
2018-10-18T11:29:07.601Z,28.23
2018-10-18T11:31:36.042Z,28.97
2018-10-18T11:34:04.619Z,27.33
2018-10-18T11:36:33.149Z,26.70
2018-10-18T11:39:01.638Z,24.83
2018-10-18T11:41:30.180Z,26.50
2018-10-18T11:43:58.658Z,26.07
2018-10-18T11:46:27.125Z,25.30
2018-10-18T11:48:55.569Z,22.53
2018-10-18T11:51:24.121Z,25.70
2018-10-18T11:53:52.577Z,24.10
2018-10-18T11:56:21.053Z,27.97
2018-10-18T11:58:49.502Z,27.47
2018-10-18T12:01:18.215Z,24.70
2018-10-18T12:03:46.637Z,25.17
2018-10-18T12:06:15.188Z,25.27
2018-10-18T12:08:43.684Z,25.73
2018-10-18T12:11:12.165Z,24.40
2018-10-18T12:13:40.666Z,25.10
2018-10-18T12:16:09.153Z,25.73
2018-10-18T12:18:37.617Z,27.07
2018-10-18T12:21:06.125Z,25.70
2018-10-18T12:23:34.606Z,24.37
2018-10-18T12:26:03.077Z,26.37
2018-10-18T12:28:31.555Z,26.60
2018-10-18T12:31:00.005Z,26.97
2018-10-18T12:33:28.526Z,26.70
2018-10-18T12:35:57.017Z,25.80
2018-10-18T12:38:25.538Z,27.63
2018-10-18T12:40:54.121Z,28.23
2018-10-18T12:43:22.701Z,29.10
2018-10-18T12:45:51.149Z,27.60
2018-10-18T12:48:19.883Z,27.03
2018-10-18T12:50:48.219Z,27.67
2018-10-18T12:53:16.689Z,28.33
2018-10-18T12:55:45.213Z,29.07
2018-10-18T12:58:13.685Z,28.87
2018-10-18T13:00:42.165Z,28.87
2018-10-18T13:03:10.645Z,28.30
2018-10-18T13:05:39.105Z,28.47
2018-10-18T13:08:07.602Z,30.23
2018-10-18T13:10:36.150Z,30.80
2018-10-18T13:13:04.621Z,31.80
2018-10-18T13:15:33.082Z,29.70
2018-10-18T13:18:01.572Z,28.17
2018-10-18T13:20:30.044Z,27.30
2018-10-18T13:22:58.534Z,29.83
2018-10-18T13:25:27.062Z,31.30
2018-10-18T13:27:55.473Z,30.10
2018-10-18T13:30:23.934Z,28.00
2018-10-18T13:32:52.445Z,29.53
2018-10-18T13:35:20.921Z,29.80
2018-10-18T13:37:49.384Z,30.80
2018-10-18T13:40:17.834Z,27.00
2018-10-18T13:42:46.330Z,31.27
2018-10-18T13:45:14.830Z,34.33
2018-10-18T13:47:43.329Z,31.47
2018-10-18T13:50:11.828Z,32.67
2018-10-18T13:52:40.378Z,29.17
2018-10-18T13:55:08.878Z,30.63
2018-10-18T13:57:37.374Z,34.57
2018-10-18T14:00:23.931Z,36.00
2018-10-18T14:02:53.360Z,33.33
2018-10-18T14:05:22.090Z,36.40
2018-10-18T14:07:51.790Z,36.30
2018-10-18T14:10:20.177Z,29.87
2018-10-18T14:12:48.720Z,32.90
2018-10-18T14:15:17.250Z,31.77
2018-10-18T14:17:45.866Z,31.97
2018-10-18T14:20:14.281Z,29.63
2018-10-18T14:22:42.766Z,29.57
2018-10-18T14:25:11.307Z,29.90
2018-10-18T14:27:39.887Z,35.03
2018-10-18T14:30:10.040Z,29.60
2018-10-18T14:32:38.757Z,31.47
2018-10-18T14:35:08.387Z,31.90
2018-10-18T14:37:36.853Z,32.43
2018-10-18T14:40:06.049Z,31.20
2018-10-18T14:42:34.591Z,33.97
2018-10-18T14:45:03.147Z,29.67
2018-10-18T14:47:31.610Z,29.50
2018-10-18T14:50:00.082Z,29.53
2018-10-18T14:52:28.585Z,28.37
2018-10-18T14:54:57.092Z,32.40
2018-10-18T14:57:25.642Z,28.77
2018-10-18T14:59:54.071Z,31.00
2018-10-18T15:02:22.553Z,28.10
2018-10-18T15:04:51.070Z,37.77
2018-10-18T15:07:19.640Z,33.93
2018-10-18T15:09:48.126Z,30.80
2018-10-18T15:12:16.573Z,30.80
2018-10-18T15:14:45.054Z,30.90
2018-10-18T15:17:13.540Z,30.70
2018-10-18T15:19:42.092Z,31.37
2018-10-18T15:22:10.513Z,30.57
2018-10-18T15:24:39.016Z,30.73
2018-10-18T15:27:07.608Z,32.50
2018-10-18T15:29:36.058Z,30.20
2018-10-18T15:32:04.676Z,31.40
2018-10-18T15:34:33.122Z,28.90
2018-10-18T15:37:01.625Z,29.47
2018-10-18T15:39:30.167Z,31.70
2018-10-18T15:41:58.714Z,28.53
2018-10-18T15:44:27.324Z,28.80
2018-10-18T15:46:55.898Z,30.80
2018-10-18T15:49:24.350Z,27.77
2018-10-18T15:51:52.926Z,29.37
2018-10-18T15:54:21.534Z,29.40
2018-10-18T15:56:49.975Z,27.73
2018-10-18T15:59:18.586Z,25.77
2018-10-18T16:01:47.084Z,25.07
2018-10-18T16:04:15.660Z,26.03
2018-10-18T16:06:44.150Z,22.60
2018-10-18T16:09:13.923Z,26.50
2018-10-18T16:11:42.506Z,24.03
2018-10-18T16:14:11.102Z,26.23
2018-10-18T16:16:39.602Z,27.03
2018-10-18T16:19:08.131Z,25.60
2018-10-18T16:21:36.692Z,26.47
2018-10-18T16:24:05.782Z,26.03
2018-10-18T16:26:34.325Z,26.20
2018-10-18T16:29:02.789Z,26.70
2018-10-18T16:31:31.283Z,26.47
2018-10-18T16:34:00.528Z,26.70
2018-10-18T16:36:29.302Z,26.67
2018-10-18T16:38:57.810Z,26.93
2018-10-18T16:41:26.837Z,28.17
2018-10-18T16:43:55.150Z,27.47
2018-10-18T16:46:23.661Z,27.33
2018-10-18T16:48:52.211Z,29.17
2018-10-18T16:51:20.707Z,28.47
2018-10-18T16:53:49.309Z,27.13
2018-10-18T16:56:17.891Z,26.37
2018-10-18T16:58:46.345Z,27.30
2018-10-18T17:01:14.886Z,26.87
2018-10-18T17:03:44.922Z,28.30
2018-10-18T17:06:14.085Z,28.47
2018-10-18T17:08:42.670Z,28.53
2018-10-18T17:11:11.265Z,28.87
2018-10-18T17:13:39.752Z,28.53
2018-10-18T17:16:08.380Z,27.80
2018-10-18T17:18:36.887Z,29.37
2018-10-18T17:21:05.897Z,28.93
2018-10-18T17:23:34.511Z,29.83
2018-10-18T17:26:03.131Z,30.57
2018-10-18T17:28:31.674Z,32.43
2018-10-18T17:31:00.421Z,30.77
2018-10-18T17:33:29.299Z,33.23
2018-10-18T17:35:58.302Z,33.23
2018-10-18T17:38:27.202Z,29.13
2018-10-18T17:40:56.513Z,32.10
2018-10-18T17:43:25.661Z,31.60
2018-10-18T17:45:54.516Z,32.73
2018-10-18T17:48:23.412Z,34.00
2018-10-18T17:50:52.341Z,33.73
2018-10-18T17:53:21.203Z,31.67
2018-10-18T17:55:50.580Z,30.90
2018-10-18T17:58:19.569Z,31.27
2018-10-18T18:00:49.205Z,30.23
2018-10-18T18:03:18.896Z,31.87
2018-10-18T18:05:47.821Z,32.43
2018-10-18T18:08:16.884Z,31.80
2018-10-18T18:10:45.797Z,31.43
2018-10-18T18:13:14.706Z,28.13
2018-10-18T18:15:44.512Z,26.13
2018-10-18T18:18:14.524Z,25.83
2018-10-18T18:20:43.628Z,26.83
2018-10-18T18:23:13.509Z,29.03
2018-10-18T18:25:42.537Z,29.43
2018-10-18T18:28:12.542Z,28.27
2018-10-18T18:30:42.587Z,29.73
2018-10-18T18:33:13.756Z,31.63
2018-10-18T18:35:42.799Z,32.13
2018-10-18T18:38:11.800Z,32.50
2018-10-18T18:40:40.795Z,30.60
2018-10-18T18:43:10.982Z,30.50
2018-10-18T18:45:40.055Z,28.47
2018-10-18T18:48:09.930Z,29.37
2018-10-18T18:50:40.108Z,30.10
2018-10-18T18:53:09.684Z,31.60
2018-10-18T18:55:40.376Z,28.13
2018-10-18T18:58:10.069Z,30.67
2018-10-18T19:00:39.506Z,30.30
2018-10-18T19:03:09.392Z,30.27
2018-10-18T19:05:39.229Z,28.17
2018-10-18T19:10:36.769Z,30.43
2018-10-18T19:13:06.950Z,31.37
2018-10-18T19:15:36.532Z,32.00
2018-10-18T19:18:05.667Z,33.10
2018-10-18T19:20:34.723Z,34.87
2018-10-18T19:23:04.955Z,35.97
2018-10-18T19:25:34.954Z,34.70
2018-10-18T19:28:04.139Z,33.27
2018-10-18T19:30:33.171Z,36.50
2018-10-18T19:33:02.529Z,35.27
2018-10-18T19:35:31.731Z,32.83
2018-10-18T19:38:00.813Z,34.93
2018-10-18T19:40:30.290Z,35.23
2018-10-18T19:42:59.324Z,33.30
2018-10-18T19:45:29.081Z,33.37
2018-10-18T19:47:58.887Z,33.73
2018-10-18T19:50:28.099Z,32.90
2018-10-18T19:52:57.096Z,35.27
2018-10-18T19:55:26.520Z,37.03
2018-10-18T19:57:55.840Z,36.30
2018-10-18T20:00:24.761Z,37.30
2018-10-18T20:02:54.707Z,38.53
2018-10-18T20:05:24.272Z,36.53
2018-10-18T20:07:53.390Z,38.37
2018-10-18T20:10:22.348Z,37.50
2018-10-18T20:12:51.964Z,35.87
2018-10-18T20:15:20.952Z,33.17
2018-10-18T20:17:50.731Z,36.07
2018-10-18T20:20:19.656Z,46.30
2018-10-18T20:22:49.577Z,36.80
2018-10-18T20:25:18.503Z,37.60
2018-10-18T20:27:47.697Z,33.77
2018-10-18T20:30:16.711Z,35.67
2018-10-18T20:32:45.539Z,33.83
2018-10-18T20:35:14.375Z,33.37
2018-10-18T20:37:43.240Z,34.40
2018-10-18T20:40:14.790Z,33.07
2018-10-18T20:42:43.746Z,31.23
2018-10-18T20:45:17.838Z,33.03
2018-10-18T20:47:46.711Z,29.67
2018-10-18T20:50:15.410Z,30.83
2018-10-18T20:52:44.070Z,31.37
2018-10-18T20:55:12.965Z,31.60
2018-10-18T20:57:41.535Z,32.03
2018-10-18T21:00:10.446Z,32.17
2018-10-18T21:02:38.910Z,32.83
2018-10-18T21:05:07.581Z,32.03
2018-10-18T21:07:36.061Z,31.27
2018-10-18T21:10:04.709Z,31.80
2018-10-18T21:12:33.177Z,32.13
2018-10-18T21:15:01.694Z,31.27
2018-10-18T21:17:30.578Z,32.40
2018-10-18T21:19:59.055Z,35.67
2018-10-18T21:22:27.519Z,33.43
2018-10-18T21:24:55.987Z,31.23
2018-10-18T21:27:24.489Z,29.73
2018-10-18T21:29:52.949Z,31.27
2018-10-18T21:32:21.381Z,32.10
2018-10-18T21:34:50.144Z,34.63
2018-10-18T21:37:18.583Z,30.87
2018-10-18T21:39:47.021Z,28.47
2018-10-18T21:42:15.474Z,28.60
2018-10-18T21:44:44.061Z,28.83
2018-10-18T21:47:12.805Z,30.20
2018-10-18T21:49:41.269Z,28.40
2018-10-18T21:52:09.715Z,28.10
2018-10-18T21:54:38.217Z,29.13
2018-10-18T21:57:06.741Z,46.00
2018-10-18T21:59:35.295Z,47.40
2018-10-18T22:02:03.830Z,33.87
2018-10-18T22:04:32.274Z,34.40
2018-10-18T22:07:00.789Z,33.43
2018-10-18T22:09:29.650Z,36.83
2018-10-18T22:11:58.079Z,35.03
2018-10-18T22:14:26.596Z,35.33
2018-10-18T22:16:55.069Z,33.77
2018-10-18T22:19:23.536Z,31.83
2018-10-18T22:21:51.955Z,31.80
2018-10-18T22:24:20.425Z,30.87
2018-10-18T22:26:48.975Z,30.13
2018-10-18T22:29:17.463Z,30.63
2018-10-18T22:31:45.915Z,32.63
2018-10-18T22:34:14.361Z,30.40
2018-10-18T22:36:42.972Z,31.47
2018-10-18T22:39:12.014Z,30.70
2018-10-18T22:41:40.890Z,31.47
2018-10-18T22:44:10.193Z,31.43
2018-10-18T22:46:38.703Z,31.63
2018-10-18T22:49:07.193Z,35.70
2018-10-18T22:51:36.046Z,32.43
2018-10-18T22:54:04.760Z,31.87
2018-10-18T22:56:33.299Z,40.50
2018-10-18T22:59:01.797Z,38.20
2018-10-18T23:01:30.254Z,36.10
2018-10-18T23:03:58.940Z,34.13
2018-10-18T23:06:27.423Z,34.00
2018-10-18T23:08:55.949Z,32.77
2018-10-18T23:11:24.428Z,30.63
2018-10-18T23:13:52.884Z,33.07
2018-10-18T23:16:21.347Z,32.73
2018-10-18T23:18:49.811Z,32.57
2018-10-18T23:21:18.555Z,31.20
2018-10-18T23:23:47.004Z,34.20
2018-10-18T23:26:15.450Z,31.67
2018-10-18T23:28:43.925Z,31.50
2018-10-18T23:31:12.337Z,31.07
2018-10-18T23:33:40.785Z,31.93
2018-10-18T23:36:09.278Z,31.93
2018-10-18T23:38:37.765Z,31.33
2018-10-18T23:41:07.077Z,31.33
2018-10-18T23:43:35.566Z,32.13
2018-10-18T23:46:04.790Z,30.63
2018-10-18T23:48:33.258Z,30.77
2018-10-18T23:51:01.812Z,32.47
2018-10-18T23:53:30.282Z,30.10
2018-10-18T23:55:58.728Z,29.80
2018-10-18T23:58:27.181Z,32.30
